Aviation Digital Data Service (ADDS)

Output produced by METARs form (1308 UTC 24 August 2019)
found at http://www.aviationweather.gov/metar/data/
 
Forecast for: ZSXZ (XUZHOU , CN)
Text: TAF ZSXZ 240302Z 2406/2506 15003MPS 6000 NSC TX32/07Z TN22/21Z
Forecast period: 0600 UTC 24 August 2019 to 0600 UTC 25 August 2019
Forecast type: FROM: standard forecast or significant change
Winds: from the SSE (150 degrees) at 7 MPH (6 knots; 3.1 m/s)
Visibility: 4 miles (6 km)
Ceiling: unknown
Clouds: missing
Weather: no significant weather forecast for this period